createdAt,value
2022-11-15T00:20:08.968Z,12.49
2022-11-15T00:48:27.263Z,12.68
2022-11-15T01:16:37.588Z,12.43
2022-11-15T01:44:52.416Z,12.04
2022-11-15T02:13:05.156Z,11.49
2022-11-15T02:41:18.098Z,11.34
2022-11-15T03:09:35.702Z,11.79
2022-11-15T03:37:43.164Z,11.98
2022-11-15T04:05:53.348Z,11.68
2022-11-15T04:34:11.082Z,12.21
2022-11-15T05:02:24.800Z,12.2
2022-11-15T05:31:15.226Z,11.8
2022-11-15T05:59:58.643Z,11.71
2022-11-15T06:28:55.830Z,11.84
2022-11-15T06:57:44.202Z,11.55
2022-11-15T07:26:35.693Z,11.55
2022-11-15T07:55:13.859Z,11.91
2022-11-15T08:24:08.916Z,11.53
2022-11-15T08:53:08.102Z,11.91
2022-11-15T09:21:39.498Z,12.07
2022-11-15T09:50:33.101Z,12.1
2022-11-15T10:19:23.116Z,12.75
2022-11-15T10:48:19.217Z,13.39
2022-11-15T11:17:03.298Z,12.95
2022-11-15T11:46:03.764Z,13.39
2022-11-15T12:14:55.170Z,13.75
2022-11-15T12:43:47.686Z,14.36
2022-11-15T13:12:05.460Z,14.74
2022-11-15T13:40:17.687Z,14.47
2022-11-15T14:08:31.499Z,13.8
2022-11-15T14:36:40.127Z,13.57
2022-11-15T15:05:03.328Z,13.68
2022-11-15T15:33:17.089Z,13.4
2022-11-15T16:01:50.981Z,13.16
2022-11-15T16:30:05.956Z,12.99
2022-11-15T16:58:11.950Z,12.74
2022-11-15T17:26:39.348Z,12.49
2022-11-15T17:54:40.160Z,12.48
2022-11-15T18:23:35.674Z,12.51
2022-11-15T18:52:03.804Z,12.46
2022-11-15T19:20:44.498Z,12.44
2022-11-15T19:49:39.454Z,12.31
2022-11-15T20:18:37.272Z,11.91
2022-11-15T20:47:14.283Z,11.83
2022-11-15T21:16:08.145Z,11.74
2022-11-15T21:44:20.301Z,11.39
2022-11-15T22:12:41.410Z,11.18
2022-11-15T22:41:00.993Z,10.95
2022-11-15T23:09:20.993Z,10.93
2022-11-15T23:37:40.610Z,10.8
